Time;durP1;ratioP1;P1;durP2;ratioP2;P2;SDS_P1;SDS_P2;PMS_P1;PMS_P2;Temp;Humidity;BMP_temperature;BMP_pressure;BME280_temperature;BME280_humidity;BME280_pressure;Samples;Min_cycle;Max_cycle;Signal;HPM_P1;HPM_P2
2022/09/30 00:01:28;;;;;;;0.10;0.10;;;;;;;;;;5020158;28;20056;-92
2022/09/30 00:03:55;;;;;;;0.20;0.20;;;;;;;;;;5022582;28;20136;-92
2022/09/30 00:06:21;;;;;;;0.20;0.20;;;;;;;;;;5021802;28;20037;-91
2022/09/30 00:08:47;;;;;;;0.30;0.30;;;;;;;;;;5021719;28;20073;-91
2022/09/30 00:11:17;;;;;;;0.30;0.30;;;;;;;;;;5022096;28;20091;-91
2022/09/30 00:13:45;;;;;;;0.30;0.30;;;;;;;;;;5021985;28;20045;-90
2022/09/30 00:16:12;;;;;;;0.20;0.20;;;;;;;;;;5038616;28;20041;-92
2022/09/30 00:18:38;;;;;;;0.20;0.20;;;;;;;;;;5022038;28;20128;-92
2022/09/30 00:21:05;;;;;;;0.10;0.10;;;;;;;;;;5021845;28;20055;-91
2022/09/30 00:23:31;;;;;;;0.20;0.20;;;;;;;;;;5021857;28;20080;-91
2022/09/30 00:25:59;;;;;;;0.10;0.10;;;;;;;;;;5021957;28;20086;-91
2022/09/30 00:28:26;;;;;;;0.20;0.20;;;;;;;;;;5021880;28;20045;-92
2022/09/30 00:30:52;;;;;;;0.30;0.30;;;;;;;;;;5014799;28;20037;-92
2022/09/30 00:33:18;;;;;;;0.10;0.10;;;;;;;;;;5001870;28;20128;-91
2022/09/30 00:35:44;;;;;;;0.20;0.20;;;;;;;;;;5001964;28;20045;-91
2022/09/30 00:38:10;;;;;;;0.28;0.28;;;;;;;;;;5018217;28;20438;-90
2022/09/30 00:40:39;;;;;;;0.22;0.22;;;;;;;;;;5001423;28;20048;-91
2022/09/30 00:43:18;;;;;;;0.30;0.30;;;;;;;;;;5001661;28;20099;-91
2022/09/30 00:45:50;;;;;;;0.10;0.10;;;;;;;;;;5001533;28;20116;-91
2022/09/30 00:48:19;;;;;;;0.22;0.22;;;;;;;;;;5001927;28;20037;-90
2022/09/30 00:50:45;;;;;;;0.20;0.20;;;;;;;;;;5001409;28;20046;-90
2022/09/30 00:53:15;;;;;;;0.28;0.28;;;;;;;;;;5001185;28;20038;-90
2022/09/30 00:55:46;;;;;;;0.40;0.40;;;;;;;;;;5001941;28;20545;-91
2022/09/30 00:58:15;;;;;;;0.28;0.28;;;;;;;;;;5001578;28;20046;-90
2022/09/30 01:00:41;;;;;;;0.20;0.20;;;16.00;99.90;;;;;;5000890;28;20052;-91
2022/09/30 01:03:07;;;;;;;0.20;0.20;;;;;;;;;;5001150;28;20056;-91
2022/09/30 01:05:34;;;;;;;0.30;0.30;;;;;;;;;;5001412;28;20077;-91
2022/09/30 01:08:01;;;;;;;0.30;0.30;;;;;;;;;;5001936;28;20490;-90
2022/09/30 01:10:27;;;;;;;0.13;0.13;;;;;;;;;;5001173;28;20037;-92
2022/09/30 01:12:53;;;;;;;0.30;0.30;;;;;;;;;;5000697;28;20037;-91
2022/09/30 01:15:23;;;;;;;0.20;0.20;;;;;;;;;;5001766;28;20064;-91
2022/09/30 01:17:59;;;;;;;0.20;0.20;;;;;;;;;;5001575;28;20041;-91
2022/09/30 01:20:37;;;;;;;0.32;0.32;;;;;;;;;;5000860;28;20510;-91
2022/09/30 01:23:13;;;;;;;0.20;0.20;;;;;;;;;;5001497;28;20498;-91
2022/09/30 01:25:39;;;;;;;0.20;0.20;;;;;;;;;;5001005;28;20380;-91
2022/09/30 01:28:28;;;;;;;0.20;0.20;;;;;;;;;;5001296;28;20478;-91
2022/09/30 01:30:59;;;;;;;0.40;0.40;;;;;;;;;;5000543;28;20042;-91
2022/09/30 01:33:34;;;;;;;0.20;0.20;;;;;;;;;;5001184;28;20103;-91
2022/09/30 01:36:05;;;;;;;0.30;0.30;;;;;;;;;;5001055;28;20091;-91
2022/09/30 01:38:31;;;;;;;0.20;0.20;;;;;;;;;;5000615;28;20100;-92
2022/09/30 01:41:04;;;;;;;0.20;0.20;;;;;;;;;;5000439;28;20095;-91
2022/09/30 01:43:33;;;;;;;0.30;0.30;;;;;;;;;;5000804;28;20395;-91
2022/09/30 01:46:02;;;;;;;0.30;0.30;;;;;;;;;;5000511;28;20037;-91
2022/09/30 01:48:28;;;;;;;0.22;0.22;;;;;;;;;;5000272;28;20137;-91
2022/09/30 01:51:03;;;;;;;0.32;0.32;;;;;;;;;;5000397;28;20049;-92
2022/09/30 01:53:29;;;;;;;0.20;0.20;;;;;;;;;;5000726;28;20091;-90
2022/09/30 01:55:55;;;;;;;0.20;0.20;;;;;;;;;;5000409;28;20044;-91
2022/09/30 01:58:25;;;;;;;0.20;0.20;;;;;;;;;;5000289;28;20509;-91
2022/09/30 02:00:53;;;;;;;0.20;0.20;;;;;;;;;;5000376;28;20049;-91
2022/09/30 02:03:25;;;;;;;0.40;0.40;;;;;;;;;;5000384;28;20037;-92
2022/09/30 02:05:57;;;;;;;0.20;0.20;;;;;;;;;;5000026;28;20034;-91
2022/09/30 02:08:33;;;;;;;0.30;0.30;;;;;;;;;;5000209;28;20041;-91
2022/09/30 02:11:05;;;;;;;0.20;0.20;;;;;;;;;;4999798;28;20038;-91
2022/09/30 02:13:50;;;;;;;0.20;0.20;;;;;;;;;;5000685;28;20128;-91
2022/09/30 02:16:21;;;;;;;0.30;0.30;;;;;;;;;;5000387;28;20046;-91
2022/09/30 02:18:50;;;;;;;0.30;0.30;;;;;;;;;;4999904;28;20724;-91
2022/09/30 02:21:20;;;;;;;0.30;0.30;;;;;;;;;;5000369;28;20052;-92
2022/09/30 02:23:47;;;;;;;0.30;0.30;;;;;;;;;;4999840;28;20037;-91
2022/09/30 02:26:39;;;;;;;0.30;0.30;;;;;;;;;;4999038;28;20041;-92
2022/09/30 02:29:29;;;;;;;0.28;0.28;;;;;;;;;;4996967;28;20568;-91
2022/09/30 02:31:57;;;;;;;0.20;0.20;;;;;;;;;;4992158;28;20714;-90
2022/09/30 02:34:23;;;;;;;0.20;0.20;;;;;;;;;;4999595;28;20477;-91
2022/09/30 02:37:02;;;;;;;0.25;0.25;;;;;;;;;;4999829;28;20041;-91
2022/09/30 02:39:33;;;;;;;0.22;0.22;;;;;;;;;;4999711;28;20034;-92
2022/09/30 02:42:07;;;;;;;0.25;0.25;;;;;;;;;;5000328;28;20398;-91
2022/09/30 02:44:33;;;;;;;0.20;0.20;;;;;;;;;;4999568;28;20095;-91
2022/09/30 02:46:59;;;;;;;0.30;0.30;;;;;;;;;;4999832;28;20049;-91
2022/09/30 02:49:25;;;;;;;0.30;0.30;;;;;;;;;;4999520;28;20045;-91
2022/09/30 02:52:11;;;;;;;0.32;0.32;;;;;;;;;;4999983;28;20094;-91
2022/09/30 02:54:46;;;;;;;0.20;0.20;;;;;;;;;;4999272;28;20045;-90
2022/09/30 02:57:13;;;;;;;;;;;;;;;;;;5000077;28;20044;-91
2022/09/30 02:59:40;;;;;;;0.20;0.20;;;;;;;;;;4999137;28;19925;-91
2022/09/30 03:02:06;;;;;;;0.30;0.30;;;;;;;;;;5000129;28;20486;-91
2022/09/30 03:04:33;;;;;;;0.40;0.40;;;;;;;;;;4999788;28;20037;-91
2022/09/30 03:07:00;;;;;;;0.20;0.20;;;;;;;;;;4999778;28;20122;-90
2022/09/30 03:09:26;;;;;;;0.28;0.28;;;;;;;;;;4999326;28;20401;-91
2022/09/30 03:12:03;;;;;;;0.47;0.47;;;;;;;;;;5015359;28;20128;-91
2022/09/30 03:14:29;;;;;;;0.35;0.35;;;;;;;;;;4999132;28;20041;-90
2022/09/30 03:17:16;;;;;;;0.40;0.40;;;;;;;;;;4999464;28;20406;-91
2022/09/30 03:20:00;;;;;;;0.30;0.30;;;;;;;;;;4999053;28;20495;-91
2022/09/30 03:22:45;;;;;;;0.37;0.37;;;;;;;;;;4999476;28;20041;-91
2022/09/30 03:25:20;;;;;;;0.22;0.22;;;;;;;;;;4999175;28;20288;-92
2022/09/30 03:27:46;;;;;;;;;;;;;;;;;;4999557;28;20041;-91
2022/09/30 03:30:17;;;;;;;0.20;0.20;;;;;;;;;;4999054;28;19924;-91
2022/09/30 03:32:43;;;;;;;0.28;0.28;;;;;;;;;;4999103;28;20502;-91
2022/09/30 03:35:21;;;;;;;0.30;0.30;;;;;;;;;;4999109;28;20037;-91
2022/09/30 03:38:05;;;;;;;0.20;0.20;;;;;;;;;;5002443;28;20091;-90
2022/09/30 03:40:53;;;;;;;0.20;0.20;;;;;;;;;;5002555;28;20325;-91
2022/09/30 03:43:36;;;;;;;0.20;0.20;;;;;;;;;;5003048;28;20053;-91
2022/09/30 03:46:09;;;;;;;0.20;0.20;;;;;;;;;;5002665;28;20064;-91
2022/09/30 03:48:36;;;;;;;0.25;0.25;;;;;;;;;;5002378;28;20049;-91
2022/09/30 03:51:03;;;;;;;0.40;0.40;;;;;;;;;;5018979;28;20094;-91
2022/09/30 03:53:29;;;;;;;0.30;0.30;;;;;;;;;;5002528;28;20037;-92
2022/09/30 03:55:55;;;;;;;0.40;0.40;;;;;;;;;;5002290;28;20041;-91
2022/09/30 03:58:22;;;;;;;0.22;0.22;;;;;;;;;;5002872;28;20045;-91
2022/09/30 04:00:53;;;;;;;0.30;0.30;;;;;;;;;;5002326;28;20052;-91
2022/09/30 04:03:19;;;;;;;0.30;0.30;;;;;;;;;;5000691;28;20071;-90
2022/09/30 04:05:46;;;;;;;0.30;0.30;;;;;;;;;;5001948;28;20037;-91
2022/09/30 04:08:12;;;;;;;0.30;0.30;;;;;;;;;;5001873;28;20040;-91
2022/09/30 04:10:42;;;;;;;0.30;0.30;;;;;;;;;;5001957;28;20033;-91
2022/09/30 04:13:09;;;;;;;0.40;0.40;;;;;;;;;;4998192;28;20041;-91
2022/09/30 04:15:35;;;;;;;0.32;0.32;;;;;;;;;;5001938;28;20414;-91
2022/09/30 04:18:02;;;;;;;0.30;0.30;;;;;;;;;;5002125;28;20079;-90
2022/09/30 04:20:29;;;;;;;0.40;0.40;;;;;;;;;;5001419;28;20037;-91
2022/09/30 04:23:01;;;;;;;0.30;0.30;;;;;;;;;;5018411;28;20404;-92
2022/09/30 04:25:28;;;;;;;0.40;0.40;;;;;;;;;;5001732;28;20034;-90
2022/09/30 04:27:54;;;;;;;0.25;0.25;;;;;;;;;;5001616;28;20084;-91
2022/09/30 04:30:20;;;;;;;0.30;0.30;;;;;;;;;;5001893;28;20501;-91
2022/09/30 04:32:46;;;;;;;0.28;0.28;;;;;;;;;;5001477;28;20056;-91
2022/09/30 04:35:13;;;;;;;0.30;0.30;;;;;;;;;;5001748;28;20478;-90
2022/09/30 04:37:43;;;;;;;0.40;0.40;;;;;;;;;;5001682;28;20037;-91
2022/09/30 04:40:09;;;;;;;0.30;0.30;;;;;;;;;;5017512;28;20491;-91
2022/09/30 04:42:35;;;;;;;0.30;0.30;;;;;;;;;;5001494;28;20095;-91
2022/09/30 04:45:02;;;;;;;0.30;0.30;;;;;;;;;;5001326;28;20041;-90
2022/09/30 04:47:29;;;;;;;0.30;0.30;;;;;;;;;;5000497;28;20398;-91
2022/09/30 04:49:56;;;;;;;0.40;0.40;;;;;;;;;;5000726;28;20399;-91
2022/09/30 04:52:22;;;;;;;0.40;0.40;;;;;;;;;;5001524;28;20090;-91
2022/09/30 04:54:48;;;;;;;0.40;0.40;;;;;;;;;;5000928;28;20044;-90
2022/09/30 04:57:14;;;;;;;0.32;0.32;;;;;;;;;;5001253;28;20057;-91
2022/09/30 04:59:40;;;;;;;0.40;0.40;;;;;;;;;;5000926;28;20087;-90
2022/09/30 05:02:08;;;;;;;0.30;0.30;;;;;;;;;;5000929;28;20043;-91
2022/09/30 05:04:34;;;;;;;0.22;0.22;;;;;;;;;;4997522;28;20045;-90
2022/09/30 05:07:02;;;;;;;0.30;0.30;;;;;;;;;;5017109;28;20095;-91
2022/09/30 05:09:28;;;;;;;0.28;0.28;;;;;;;;;;5000902;28;20107;-91
2022/09/30 05:11:54;;;;;;;0.30;0.30;;;;;;;;;;5000868;28;20099;-91
2022/09/30 05:14:21;;;;;;;0.30;0.30;;;;;;;;;;5001096;28;20034;-91
2022/09/30 05:16:47;;;;;;;0.30;0.30;;;;;;;;;;5000993;28;20033;-90
2022/09/30 05:19:13;;;;;;;0.30;0.30;;;;;;;;;;5000474;28;20398;-91
2022/09/30 05:21:39;;;;;;;0.40;0.40;;;;;;;;;;5000674;28;20048;-91
2022/09/30 05:24:05;;;;;;;0.30;0.30;;;;;;;;;;5000509;28;20072;-91
2022/09/30 05:26:31;;;;;;;0.20;0.20;;;;;;;;;;4996835;28;20034;-90
2022/09/30 05:28:57;;;;;;;0.40;0.40;;;;;;;;;;5000491;28;20120;-91
2022/09/30 05:31:23;;;;;;;0.30;0.30;;;;;;;;;;5000686;28;20125;-91
2022/09/30 05:33:49;;;;;;;0.40;0.40;;;;;;;;;;5000316;28;20042;-91
2022/09/30 05:36:16;;;;;;;0.40;0.40;;;;;;;;;;5001004;28;20492;-91
2022/09/30 05:38:42;;;;;;;0.30;0.30;;;;;;;;;;5000401;28;20044;-91
2022/09/30 05:41:13;;;;;;;0.40;0.40;;;;;;;;;;5000424;28;20045;-92
2022/09/30 05:43:39;;;;;;;0.40;0.40;;;;;;;;;;5000961;28;20037;-91
2022/09/30 05:46:05;;;;;;;0.30;0.30;;;;;;;;;;5000738;28;20037;-91
2022/09/30 05:48:31;;;;;;;0.38;0.38;;;;;;;;;;5000744;28;20088;-91
2022/09/30 05:51:00;;;;;;;0.40;0.40;;;;;;;;;;5000524;28;20042;-91
2022/09/30 05:53:26;;;;;;;0.30;0.30;;;;;;;;;;5000352;28;20030;-92
2022/09/30 05:55:52;;;;;;;0.40;0.40;;;;;;;;;;5000026;28;20048;-91
2022/09/30 05:58:19;;;;;;;0.35;0.35;;;;;;;;;;5000115;28;20037;-91
2022/09/30 06:00:46;;;;;;;0.50;0.50;;;;;;;;;;5016088;28;20157;-91
2022/09/30 06:03:12;;;;;;;0.40;0.40;;;;;;;;;;5000425;28;20029;-91
2022/09/30 06:05:39;;;;;;;0.40;0.40;;;;;;;;;;5001207;28;20045;-91
2022/09/30 06:08:08;;;;;;;0.40;0.40;;;;;;;;;;5000188;28;20047;-90
2022/09/30 06:10:35;;;;;;;0.43;0.43;;;;;;;;;;4999891;28;20548;-91
2022/09/30 06:13:04;;;;;;;0.40;0.40;;;;;;;;;;5000155;28;20099;-91
2022/09/30 06:15:31;;;;;;;0.38;0.38;;;;;;;;;;4996364;28;20033;-90
2022/09/30 06:17:57;;;;;;;0.40;0.40;;;;;;;;;;5000322;28;20084;-91
2022/09/30 06:20:23;;;;;;;0.40;0.40;;;;;;;;;;4999766;28;20076;-91
2022/09/30 06:22:49;;;;;;;0.40;0.40;;;;;;;;;;5000408;28;20048;-91
2022/09/30 06:25:16;;;;;;;0.30;0.30;;;;;;;;;;5000170;28;20096;-91
2022/09/30 06:27:46;;;;;;;0.28;0.28;;;;;;;;;;5000181;28;20065;-91
2022/09/30 06:30:12;;;;;;;0.40;0.40;;;;;;;;;;4999949;28;20418;-91
2022/09/30 06:32:39;;;;;;;0.20;0.20;;;;;;;;;;4999785;28;20601;-91
2022/09/30 06:35:05;;;;;;;0.30;0.30;;;;;;;;;;4997865;28;20072;-91
2022/09/30 06:37:31;;;;;;;0.30;0.30;;;;;;;;;;5000095;28;20044;-91
2022/09/30 06:39:57;;;;;;;0.28;0.28;;;;;;;;;;4998836;28;20047;-91
2022/09/30 06:42:23;;;;;;;0.38;0.38;;;;;;;;;;4999260;28;20071;-91
2022/09/30 06:44:50;;;;;;;0.30;0.30;;;;;;;;;;4999659;28;20091;-92
2022/09/30 06:47:17;;;;;;;0.30;0.30;;;;;;;;;;4999728;28;20045;-92
2022/09/30 06:49:44;;;;;;;0.20;0.20;;;;;;;;;;4998354;28;20044;-91
2022/09/30 06:52:11;;;;;;;0.30;0.30;;;;;;;;;;4999549;28;20037;-91
2022/09/30 06:54:38;;;;;;;0.30;0.30;;;;;;;;;;5009245;28;20513;-91
2022/09/30 06:57:04;;;;;;;0.20;0.20;;;;;;;;;;5008258;28;20060;-91
2022/09/30 06:59:30;;;;;;;0.25;0.25;;;;;;;;;;5011107;28;20088;-90
2022/09/30 07:01:56;;;;;;;0.20;0.20;;;;;;;;;;5008721;28;20052;-91
2022/09/30 07:04:22;;;;;;;0.30;0.30;;;;;;;;;;5009323;28;20040;-92
2022/09/30 07:06:48;;;;;;;0.40;0.40;;;;;;;;;;5007331;28;20029;-91
2022/09/30 07:09:15;;;;;;;0.30;0.30;;;;;;;;;;5010822;28;20048;-91
2022/09/30 07:11:41;;;;;;;0.22;0.22;;;;;;;;;;5008853;28;20491;-91
2022/09/30 07:14:09;;;;;;;0.40;0.40;;;;;;;;;;5014241;28;20047;-91
2022/09/30 07:16:35;;;;;;;0.20;0.20;;;;;;;;;;5009692;28;20113;-92
2022/09/30 07:19:02;;;;;;;0.20;0.20;;;;;;;;;;5011616;28;20091;-91
2022/09/30 07:21:30;;;;;;;0.20;0.20;;;;;;;;;;5010731;28;20041;-90
2022/09/30 07:23:58;;;;;;;0.20;0.20;;;;;;;;;;5011234;28;20061;-91
2022/09/30 07:26:24;;;;;;;0.30;0.30;;;;;;;;;;5009257;28;20132;-91
2022/09/30 07:28:51;;;;;;;0.22;0.22;;;;;;;;;;5012348;28;20037;-91
2022/09/30 07:31:18;;;;;;;0.20;0.20;;;;;;;;;;5010387;28;20041;-91
2022/09/30 07:33:44;;;;;;;0.30;0.30;;;;;;;;;;5010681;28;20553;-90
2022/09/30 07:36:11;;;;;;;0.30;0.30;;;;;;;;;;5004718;28;20041;-90
2022/09/30 07:38:39;;;;;;;0.32;0.32;;;;;;;;;;5003125;28;20041;-91
2022/09/30 07:41:06;;;;;;;0.20;0.20;;;;;;;;;;5001463;28;20045;-90
2022/09/30 07:43:37;;;;;;;0.20;0.20;;;;;;;;;;5012758;28;20033;-91
2022/09/30 07:46:23;;;;;;;0.40;0.40;;;;;;;;;;5011810;28;20036;-90
2022/09/30 07:48:51;;;;;;;0.40;0.40;;;;;;;;;;5005593;28;20052;-90
2022/09/30 07:51:25;;;;;;;0.20;0.20;;;;;;;;;;5009940;28;20044;-91
2022/09/30 07:53:53;;;;;;;0.20;0.20;;;;;;;;;;5025908;28;20403;-91
2022/09/30 07:56:20;;;;;;;0.10;0.10;;;;;;;;;;5013581;28;20042;-91
2022/09/30 07:58:46;;;;;;;0.22;0.22;;;;;;;;;;5011176;28;20076;-90
2022/09/30 08:01:13;;;;;;;0.30;0.30;;;;;;;;;;5002515;28;20057;-91
2022/09/30 08:03:40;;;;;;;0.40;0.40;;;;;;;;;;5002117;28;20033;-90
2022/09/30 08:06:06;;;;;;;0.25;0.25;;;;;;;;;;5002051;28;20052;-90
2022/09/30 08:08:33;;;;;;;0.17;0.17;;;;;;;;;;5002112;28;20073;-90
2022/09/30 08:10:59;;;;;;;0.30;0.30;;;;;;;;;;5001756;28;20041;-89
2022/09/30 08:13:25;;;;;;;0.40;0.40;;;;;;;;;;5002324;28;20041;-89
2022/09/30 08:15:51;;;;;;;0.20;0.20;;;;;;;;;;5000505;28;20092;-89
2022/09/30 08:18:18;;;;;;;0.20;0.20;;;;;;;;;;5001097;28;20033;-89
2022/09/30 08:20:44;;;;;;;0.20;0.20;;;;;;;;;;4999027;28;20065;-90
2022/09/30 08:23:10;;;;;;;0.28;0.28;;;;;;;;;;4999545;28;20037;-90
2022/09/30 08:25:36;;;;;;;0.30;0.30;;;;;;;;;;4999112;28;20060;-90
2022/09/30 08:28:02;;;;;;;0.30;0.30;;;;;;;;;;5009320;28;20037;-90
2022/09/30 08:30:28;;;;;;;0.20;0.20;;;;;;;;;;5008922;28;20096;-89
2022/09/30 08:33:07;;;;;;;0.20;0.20;;;;;;;;;;5002347;28;20072;-90
2022/09/30 08:35:52;;;;;;;0.13;0.13;;;;;;;;;;5014836;28;20033;-89
2022/09/30 08:38:42;;;;;;;;;;;;;;;;;;5003274;28;20048;-90
2022/09/30 08:41:22;;;;;;;0.22;0.22;;;;;;;;;;4996273;28;20000;-89
2022/09/30 08:43:51;;;;;;;0.20;0.20;;;;;;;;;;4995363;28;20102;-90
2022/09/30 08:46:27;;;;;;;0.17;0.17;;;;;;;;;;4999247;28;20041;-89
2022/09/30 08:49:02;;;;;;;0.30;0.30;;;;;;;;;;4996549;28;20041;-90
2022/09/30 08:51:28;;;;;;;;;;;;;;;;;;5010111;28;20120;-90
2022/09/30 08:53:55;;;;;;;0.20;0.20;;;;;;;;;;5000668;28;19991;-90
2022/09/30 08:56:23;;;;;;;0.20;0.20;;;;;;;;;;5001386;28;20150;-90
2022/09/30 08:58:51;;;;;;;0.20;0.20;;;;;;;;;;4999240;28;20034;-91
2022/09/30 09:01:17;;;;;;;0.20;0.20;;;;;;;;;;4998352;28;20069;-92
2022/09/30 09:03:44;;;;;;;0.20;0.20;;;;;;;;;;4997764;28;20087;-89
2022/09/30 09:06:21;;;;;;;0.10;0.10;;;;;;;;;;5000380;28;20037;-90
2022/09/30 09:08:53;;;;;;;0.20;0.20;;;;;;;;;;5001310;28;20054;-89
2022/09/30 09:11:30;;;;;;;0.10;0.10;;;;;;;;;;4997329;28;20111;-90
2022/09/30 09:14:05;;;;;;;0.20;0.20;;;;;;;;;;4994004;28;20041;-90
2022/09/30 09:16:36;;;;;;;0.10;0.10;;;;;;;;;;5000758;28;20037;-90
2022/09/30 09:19:02;;;;;;;0.20;0.20;;;;;;;;;;5000824;28;20462;-90
2022/09/30 09:21:47;;;;;;;0.10;0.10;;;;;;;;;;5000444;28;20041;-91
2022/09/30 09:24:15;;;;;;;0.10;0.10;;;;;;;;;;5000562;28;20033;-90
2022/09/30 09:26:41;;;;;;;0.17;0.17;;;;;;;;;;5000191;28;20446;-91
2022/09/30 09:29:26;;;;;;;0.10;0.10;;;;;;;;;;5000263;28;20622;-90
2022/09/30 09:31:58;;;;;;;0.10;0.10;;;;;;;;;;4996282;28;20033;-90
2022/09/30 09:34:26;;;;;;;0.10;0.10;;;;;;;;;;5000159;28;20041;-89
2022/09/30 09:37:12;;;;;;;0.20;0.20;;;;;;;;;;5000913;28;20054;-91
2022/09/30 09:39:48;;;;;;;0.10;0.10;;;;;;;;;;4999933;28;20037;-90
2022/09/30 09:42:43;;;;;;;0.10;0.10;;;;;;;;;;5000277;28;20037;-90
2022/09/30 09:45:12;;;;;;;0.10;0.10;;;;;;;;;;4987247;28;20050;-91
2022/09/30 09:47:39;;;;;;;0.10;0.10;;;;;;;;;;5000475;28;20042;-91
2022/09/30 09:50:13;;;;;;;0.30;0.30;;;;;;;;;;5000246;28;20521;-91
2022/09/30 09:52:42;;;;;;;0.20;0.20;;;;;;;;;;4999809;28;20033;-91
2022/09/30 09:55:10;;;;;;;0.20;0.20;;;;;;;;;;5000419;28;20502;-91
2022/09/30 09:57:38;;;;;;;0.10;0.10;;;;;;;;;;5000057;28;20037;-90
2022/09/30 10:03:18;;;;;;;0.20;0.20;;;;;;;;;;5016254;28;20088;-90
2022/09/30 10:05:46;;;;;;;0.20;0.20;;;;;;;;;;4999646;28;20034;-91
2022/09/30 10:08:19;;;;;;;0.15;0.15;;;;;;;;;;4999736;28;20033;-90
2022/09/30 10:10:47;;;;;;;0.20;0.20;;;;;;;;;;4991942;28;20045;-91
2022/09/30 10:13:36;;;;;;;0.30;0.30;;;;;;;;;;4999983;28;20045;-91
2022/09/30 10:16:02;;;;;;;0.10;0.10;;;;;;;;;;4998490;28;20407;-91
2022/09/30 10:18:36;;;;;;;0.20;0.20;;;;;;;;;;4999799;28;20033;-91
2022/09/30 10:21:04;;;;;;;0.10;0.10;;;;;;;;;;4999564;28;20041;-91
2022/09/30 10:23:37;;;;;;;0.10;0.10;;;;;;;;;;5000182;28;20094;-91
2022/09/30 10:26:23;;;;;;;0.10;0.10;;;;;;;;;;5000136;28;20037;-91
2022/09/30 10:28:56;;;;;;;0.10;0.10;;;;;;;;;;4992380;28;20513;-91
2022/09/30 10:31:28;;;;;;;0.10;0.10;;;;;;;;;;4999313;28;20497;-91
2022/09/30 10:34:13;;;;;;;0.10;0.10;;;;;;;;;;5000277;28;20576;-91
2022/09/30 10:36:42;;;;;;;0.20;0.20;;;;;;;;;;4999824;28;20402;-92
2022/09/30 10:39:08;;;;;;;0.28;0.28;;;;;;;;;;4999534;28;20068;-90
2022/09/30 10:41:37;;;;;;;0.10;0.10;;;;;;;;;;4999808;28;20034;-92
2022/09/30 10:44:05;;;;;;;0.20;0.20;;;;;;;;;;4999876;28;20042;-90
2022/09/30 10:46:37;;;;;;;0.10;0.10;;;;;;;;;;4998704;28;20398;-90
2022/09/30 10:49:11;;;;;;;0.10;0.10;;;;;;;;;;5015540;28;20053;-90
2022/09/30 10:51:38;;;;;;;0.15;0.15;;;;;;;;;;4999388;28;20049;-92
2022/09/30 10:54:04;;;;;;;0.15;0.15;;;;;;;;;;4998605;28;20044;-91
2022/09/30 10:56:36;;;;;;;0.10;0.10;;;;;;;;;;4998597;28;20043;-91
2022/09/30 10:59:04;;;;;;;0.10;0.10;;;;;;;;;;4997220;28;20142;-91
2022/09/30 11:01:40;;;;;;;0.20;0.20;;;;;;;;;;4997210;28;20072;-91
2022/09/30 11:04:14;;;;;;;0.20;0.20;;;;;;;;;;4998003;28;20041;-91
2022/09/30 11:06:40;;;;;;;0.10;0.10;;;;;;;;;;5013861;28;20116;-91
2022/09/30 11:09:10;;;;;;;0.00;0.00;;;;;;;;;;4997559;28;20495;-91
2022/09/30 11:11:43;;;;;;;0.20;0.20;;;;;;;;;;4997767;28;20525;-92
2022/09/30 11:14:27;;;;;;;0.20;0.20;;;;;;;;;;4999395;28;20129;-91
2022/09/30 11:17:09;;;;;;;0.10;0.10;;;;;;;;;;4996809;28;20072;-92
2022/09/30 11:19:48;;;;;;;0.28;0.28;;;;;;;;;;4995732;28;21616;-91
2022/09/30 11:22:14;;;;;;;0.10;0.10;;;;;;;;;;4996198;28;20042;-91
2022/09/30 11:24:45;;;;;;;0.10;0.10;;;;;;;;;;4995241;28;20160;-91
2022/09/30 11:27:11;;;;;;;0.17;0.17;;;;;;;;;;4991112;28;20084;-92
2022/09/30 11:29:43;;;;;;;0.10;0.10;;;;;;;;;;4998552;28;20038;-92
2022/09/30 11:32:09;;;;;;;0.10;0.10;;;;;;;;;;4998762;28;20041;-92
2022/09/30 11:34:47;;;;;;;0.10;0.10;;;;;;;;;;4999244;28;20140;-91
2022/09/30 11:37:15;;;;;;;0.10;0.10;;;;;;;;;;4995895;28;20446;-92
2022/09/30 11:39:46;;;;;;;0.20;0.20;;;;;;;;;;4998593;28;20033;-92
2022/09/30 11:42:30;;;;;;;0.20;0.20;;;;;;;;;;4993545;28;20045;-92
2022/09/30 11:45:08;;;;;;;0.15;0.15;;;;;;;;;;4995295;28;20041;-92
2022/09/30 11:47:57;;;;;;;0.20;0.20;;;;;;;;;;4998576;28;20043;-92
2022/09/30 11:50:26;;;;;;;0.10;0.10;;;;;;;;;;4996251;28;20120;-94
2022/09/30 11:52:52;;;;;;;0.20;0.20;;;;;;;;;;4999405;28;20486;-93
2022/09/30 11:55:32;;;;;;;0.10;0.10;;;;;;;;;;4997877;28;20037;-93
2022/09/30 11:58:13;;;;;;;0.17;0.17;;;;;;;;;;5000252;28;20045;-93
2022/09/30 12:00:42;;;;;;;0.30;0.30;;;;;;;;;;4998496;28;20396;-93
2022/09/30 12:03:13;;;;;;;0.10;0.10;;;;;;;;;;5002276;28;20072;-93
2022/09/30 12:05:47;;;;;;;0.17;0.17;;;;;;;;;;4998364;28;20088;-94
2022/09/30 12:08:20;;;;;;;0.20;0.20;;;;;;;;;;4995478;28;20130;-93
2022/09/30 12:10:47;;;;;;;0.10;0.10;;;;;;;;;;5002692;28;20398;-93
2022/09/30 12:13:17;;;;;;;0.10;0.10;;;;;;;;;;5002520;28;20052;-93
2022/09/30 12:15:44;;;;;;;0.10;0.10;;;;;;;;;;5002735;28;20233;-93
2022/09/30 12:18:13;;;;;;;0.10;0.10;;;;;;;;;;5003065;28;20072;-92
2022/09/30 12:20:58;;;;;;;0.10;0.10;;;;;;;;;;4994662;28;20478;-93
2022/09/30 12:23:35;;;;;;;0.10;0.10;;;;;;;;;;5000909;28;20126;-94
2022/09/30 12:26:02;;;;;;;0.10;0.10;;;;;;;;;;5002358;28;20067;-94
2022/09/30 12:31:26;;;;;;;0.20;0.20;;;;;;;;;;5015906;28;20042;-93
2022/09/30 12:34:08;;;;;;;0.10;0.10;;;;;;;;;;5002435;28;20083;-94
2022/09/30 12:36:41;;;;;;;0.10;0.10;;;;;;;;;;5002380;28;20376;-93
2022/09/30 12:39:27;;;;;;;0.10;0.10;;;;;;;;;;4994465;28;20037;-94
2022/09/30 12:42:06;;;;;;;0.10;0.10;;;;;;;;;;4996472;28;20117;-94
2022/09/30 12:44:39;;;;;;;0.10;0.10;;;;;;;;;;5002042;28;20072;-94
2022/09/30 12:47:15;;;;;;;0.10;0.10;;;;;;;;;;5002533;28;20135;-94
2022/09/30 12:49:42;;;;;;;0.25;0.25;;;;;;;;;;4999181;28;20037;-93
2022/09/30 12:52:14;;;;;;;0.15;0.15;;;;;;;;;;5002436;28;20080;-94
2022/09/30 12:55:00;;;;;;;0.10;0.10;;;;;;;;;;4994936;28;20042;-93
2022/09/30 12:57:28;;;;;;;0.10;0.10;;;;;;;;;;5000569;28;20468;-94
2022/09/30 12:59:56;;;;;;;0.08;0.08;;;;;;;;;;5002625;28;20064;-95
2022/09/30 13:02:37;;;;;;;0.10;0.10;;;;;;;;;;5018850;28;20179;-94
2022/09/30 13:05:29;;;;;;;0.20;0.20;;;;;;;;;;5001637;28;20041;-95
2022/09/30 13:08:04;;;;;;;0.10;0.10;;;;;;;;;;4975164;28;20106;-94
2022/09/30 13:10:43;;;;;;;0.10;0.10;;;;;;;;;;5001458;28;20044;-96
2022/09/30 13:13:12;;;;;;;0.10;0.10;;;;;;;;;;4990299;28;20128;-93
2022/09/30 13:15:42;;;;;;;0.10;0.10;;;;;;;;;;4994871;28;20038;-95
2022/09/30 13:18:25;;;;;;;0.10;0.10;;;;;;;;;;4998442;28;20037;-95
2022/09/30 13:21:03;;;;;;;0.20;0.20;;;;;;;;;;4999816;28;20475;-96
2022/09/30 13:23:44;;;;;;;0.20;0.20;;;;;;;;;;5001792;28;20064;-95
2022/09/30 13:26:30;;;;;;;0.10;0.10;;;;;;;;;;4998279;28;20033;-96
2022/09/30 13:28:59;;;;;;;0.10;0.10;;;;;;;;;;5001420;28;20041;-94
2022/09/30 13:31:27;;;;;;;0.10;0.10;;;;;;;;;;5001460;28;20116;-96
2022/09/30 13:34:08;;;;;;;0.10;0.10;;;;;;;;;;5001726;28;20099;-95
2022/09/30 13:36:39;;;;;;;0.10;0.10;;;;;;;;;;4998627;28;20128;-95
2022/09/30 13:39:18;;;;;;;0.10;0.10;;;;;;;;;;4994203;28;20037;-95
2022/09/30 13:41:46;;;;;;;0.10;0.10;;;;;;;;;;4999893;28;20506;-96
2022/09/30 13:44:16;;;;;;;0.10;0.10;;;;;;;;;;5000988;28;20037;-93
2022/09/30 13:46:45;;;;;;;0.20;0.20;;;;;;;;;;5001899;28;20033;-96
2022/09/30 13:49:14;;;;;;;0.10;0.10;;;;;;;;;;5000939;28;20095;-92
2022/09/30 13:51:41;;;;;;;0.10;0.10;;;;;;;;;;5001297;28;20398;-95
2022/09/30 13:54:22;;;;;;;0.20;0.20;;;;;;;;;;5001801;28;20061;-95
2022/09/30 13:56:49;;;;;;;0.20;0.20;;;;;;;;;;4999245;28;20037;-96
2022/09/30 13:59:21;;;;;;;0.30;0.30;;;;;;;;;;5002945;28;20029;-95
2022/09/30 14:01:53;;;;;;;0.10;0.10;;;;;;;;;;5002881;28;20573;-95
2022/09/30 14:04:25;;;;;;;0.10;0.10;;;;;;;;;;5001160;28;20068;-96
2022/09/30 14:07:11;;;;;;;0.20;0.20;;;;;;;;;;4994474;28;20099;-95
2022/09/30 14:09:47;;;;;;;0.10;0.10;;;;;;;;;;4999248;28;20042;-93
2022/09/30 14:12:15;;;;;;;0.13;0.13;;;;;;;;;;4995398;28;20044;-95
2022/09/30 14:14:44;;;;;;;0.10;0.10;;;;;;;;;;4999854;28;20095;-95
2022/09/30 14:17:35;;;;;;;0.22;0.22;;;;;;;;;;4998703;28;20048;-96
2022/09/30 14:20:08;;;;;;;0.10;0.10;;;;;;;;;;5004316;28;20069;-95
2022/09/30 14:22:35;;;;;;;0.22;0.22;;;;;;;;;;5008953;28;20068;-96
2022/09/30 14:25:02;;;;;;;0.10;0.10;;;;;;;;;;5013213;28;20033;-95
2022/09/30 14:27:47;;;;;;;0.20;0.20;;;;;;;;;;5016650;28;20517;-96
2022/09/30 14:30:18;;;;;;;0.20;0.20;;;;;;;;;;5005491;28;20418;-96
2022/09/30 14:32:53;;;;;;;0.20;0.20;;;;;;;;;;5007103;28;20044;-95
2022/09/30 14:45:53;;;;;;;0.10;0.10;;;;;;;;;;5022318;22;20081;-94
2022/09/30 14:48:27;;;;;;;0.10;0.10;;;;;;;;;;4980613;28;20042;-93
2022/09/30 14:51:11;;;;;;;0.10;0.10;;;;;;;;;;4994273;28;20046;-95
2022/09/30 14:54:02;;;;;;;0.95;0.95;;;;;;;;;;5002572;28;20038;-93
2022/09/30 14:56:41;;;;;;;0.15;0.15;;;;;;;;;;5000445;28;20061;-94
2022/09/30 14:59:16;;;;;;;0.10;0.10;;;;;;;;;;4982851;28;20068;-93
2022/09/30 15:01:44;;;;;;;0.10;0.10;;;;;;;;;;4977366;28;20042;-93
2022/09/30 15:04:17;;;;;;;0.10;0.10;;;;;;;;;;4978095;28;20090;-95
2022/09/30 15:06:47;;;;;;;0.10;0.10;;;;;;;;;;4982128;28;20054;-94
2022/09/30 15:09:19;;;;;;;0.10;0.10;;;;;;;;;;4999154;28;20551;-94
2022/09/30 15:11:45;;;;;;;0.15;0.15;;;;;;;;;;4972830;28;20041;-95
2022/09/30 15:14:19;;;;;;;0.10;0.10;;;;;;;;;;4973253;28;20495;-95
2022/09/30 15:17:10;;;;;;;0.10;0.10;;;;;;;;;;4973791;28;20042;-94
2022/09/30 15:19:57;;;;;;;0.10;0.10;;;;;;;;;;5002994;28;20122;-92
2022/09/30 15:22:32;;;;;;;0.10;0.10;;;;;;;;;;4988630;28;20544;-96